This is the latest recevied weather packets stored in our database for station/object SAVIL. If no packets are shown the sender has not sent any weather packets the latest 1 day(s).
| Time | Temp. | Humidity | Pressure | Rain* | Wind** | Luminosity | Snow |
|---|---|---|---|---|---|---|---|
| 1836274165 | 9.44° C | 91% | 1006.9 hPa | 0 mm | 1.79 m/s, 154° | - | - |
| 1778048837 | 6.11° C | 49% | 1006 hPa | 0 mm | 4.92 m/s, 262° | - | - |
| 1778047637 | 5.56° C | 51% | 1005.8 hPa | 0 mm | 4.92 m/s, 254° | - | - |
| 1778046437 | 5.56° C | 54% | 1005.7 hPa | 0 mm | 4.47 m/s, 256° | - | - |
| 1778045237 | 5° C | 58% | 1005.6 hPa | 0 mm | 3.58 m/s, 256° | - | - |
| 1778044037 | 4.44° C | 60% | 1005.4 hPa | 0 mm | 3.13 m/s, 268° | - | - |
| 1778042837 | 3.89° C | 63% | 1005.3 hPa | 0 mm | 3.13 m/s, 253° | - | - |
| 1778041637 | 3.33° C | 64% | 1005.2 hPa | 0 mm | 3.13 m/s, 259° | - | - |
| 1778039236 | 3.33° C | 66% | 1004.9 hPa | 0 mm | 2.68 m/s, 253° | - | - |
| 1778038036 | 2.78° C | 66% | 1004.7 hPa | 0 mm | 2.24 m/s, 254° | - | - |
| 1778036836 | 2.78° C | 67% | 1004.5 hPa | 0 mm | 2.24 m/s, 247° | - | - |
| 1778035636 | 2.22° C | 66% | 1004.3 hPa | 0 mm | 3.13 m/s, 234° | - | - |
| 1778034436 | 2.22° C | 67% | 1004.2 hPa | 0 mm | 2.24 m/s, 247° | - | - |
| 1778033236 | 2.22° C | 65% | 1004.1 hPa | 0 mm | 2.24 m/s, 241° | - | - |
| 1778032036 | 2.78° C | 62% | 1004 hPa | 0 mm | 2.68 m/s, 253° | - | - |
| 1778030836 | 3.33° C | 59% | 1003.7 hPa | 0 mm | 2.68 m/s, 246° | - | - |
| 1778029636 | 3.33° C | 58% | 1003.7 hPa | 0 mm | 3.13 m/s, 255° | - | - |
| 1778028436 | 3.89° C | 57% | 1003.6 hPa | 0 mm | 4.02 m/s, 264° | - | - |
| 1778027236 | 3.89° C | 57% | 1003.4 hPa | 0 mm | 2.68 m/s, 258° | - | - |
| 1778026036 | 3.89° C | 56% | 1003.3 hPa | 0 mm | 3.58 m/s, 270° | - | - |
| 1778024836 | 3.89° C | 55% | 1003.1 hPa | 0 mm | 3.58 m/s, 272° | - | - |
| 1778023635 | 3.89° C | 54% | 1003.1 hPa | 0 mm | 2.68 m/s, 271° | - | - |
| 1778022435 | 4.44° C | 52% | 1003 hPa | 0 mm | 3.13 m/s, 269° | - | - |
| 1778021235 | 4.44° C | 51% | 1003 hPa | 0 mm | 2.68 m/s, 264° | - | - |
| 1778020035 | 4.44° C | 50% | 1002.9 hPa | 0 mm | 2.68 m/s, 255° | - | - |
* Rain latest hour (hover to see other rain measurements)
** Current wind speed in m/s (hover to see current wind gust speed)